createdAt,value
2017-07-19T00:00:49.766Z,58.49
2017-07-19T00:01:59.825Z,58.72
2017-07-19T00:03:10.189Z,58.72
2017-07-19T00:04:20.531Z,58.62
2017-07-19T00:05:30.865Z,58.81
2017-07-19T00:06:41.255Z,58.81
2017-07-19T00:07:51.280Z,58.91
2017-07-19T00:09:01.324Z,58.52
2017-07-19T00:10:11.061Z,58.81
2017-07-19T00:11:21.433Z,58.91
2017-07-19T00:12:31.829Z,58.91
2017-07-19T00:13:42.170Z,58.91
2017-07-19T00:14:52.517Z,59
2017-07-19T00:16:02.552Z,58.52
2017-07-19T00:17:12.587Z,59
2017-07-19T00:18:22.973Z,58.52
2017-07-19T00:19:33.037Z,59.39
2017-07-19T00:20:43.086Z,59
2017-07-19T00:21:53.133Z,59.2
2017-07-19T00:23:03.485Z,58.72
2017-07-19T00:24:13.254Z,59.2
2017-07-19T00:25:23.594Z,59.3
2017-07-19T00:26:33.960Z,59.2
2017-07-19T00:27:44.329Z,59.1
2017-07-19T00:28:54.696Z,59.1
2017-07-19T00:30:05.106Z,59.3
2017-07-19T00:31:15.461Z,59.3
2017-07-19T00:32:25.495Z,59.3
2017-07-19T00:33:35.840Z,59.3
2017-07-19T00:34:46.182Z,59.2
2017-07-19T00:35:56.215Z,59.2
2017-07-19T00:37:06.271Z,59.1
2017-07-19T00:38:16.747Z,59.3
2017-07-19T00:39:27.086Z,59.3
2017-07-19T00:40:37.442Z,59.1
2017-07-19T00:41:47.837Z,59.1
2017-07-19T00:42:57.874Z,59.1
2017-07-19T00:44:08.222Z,59.2
2017-07-19T00:45:18.287Z,59.3
2017-07-19T00:46:28.637Z,58.98
2017-07-19T00:47:38.976Z,59.1
2017-07-19T00:48:49.350Z,59.07
2017-07-19T00:49:59.400Z,58.88
2017-07-19T00:51:09.474Z,58.88
2017-07-19T00:52:19.833Z,59.07
2017-07-19T00:53:30.176Z,59.07
2017-07-19T00:54:40.528Z,58.88
2017-07-19T00:55:50.885Z,59.07
2017-07-19T00:57:01.222Z,58.98
2017-07-19T00:58:11.616Z,59.07
2017-07-19T00:59:22.018Z,58.98
2017-07-19T01:00:32.062Z,59.27
2017-07-19T01:01:42.113Z,59.17
2017-07-19T01:02:52.459Z,59.17
2017-07-19T01:04:02.838Z,59.36
2017-07-19T01:05:13.234Z,59.27
2017-07-19T01:06:23.271Z,59.27
2017-07-19T01:07:33.626Z,59.17
2017-07-19T01:08:43.988Z,58.69
2017-07-19T01:09:54.336Z,58.49
2017-07-19T01:11:04.759Z,58.98
2017-07-19T01:12:15.100Z,58.59
2017-07-19T01:13:25.436Z,59.27
2017-07-19T01:14:35.154Z,59.23
2017-07-19T01:15:45.509Z,59.14
2017-07-19T01:16:55.882Z,59.23
2017-07-19T01:18:05.950Z,59.23
2017-07-19T01:19:16.298Z,59.23
2017-07-19T01:20:26.660Z,59.14
2017-07-19T01:21:37.024Z,59.11
2017-07-19T01:22:47.058Z,59.14
2017-07-19T01:23:57.402Z,59.31
2017-07-19T01:25:07.771Z,59.11
2017-07-19T01:26:18.117Z,59.31
2017-07-19T01:27:28.149Z,59.11
2017-07-19T01:28:38.544Z,58.63
2017-07-19T01:29:48.929Z,58.63
2017-07-19T01:30:59.268Z,58.82
2017-07-19T01:32:09.632Z,58.72
2017-07-19T01:33:19.979Z,58.72
2017-07-19T01:34:30.317Z,58.82
2017-07-19T01:35:40.671Z,58.72
2017-07-19T01:36:51.014Z,58.82
2017-07-19T01:38:01.370Z,58.82
2017-07-19T01:39:11.418Z,58.82
2017-07-19T01:40:21.808Z,58.34
2017-07-19T01:41:32.150Z,58.44
2017-07-19T01:42:42.206Z,58.44
2017-07-19T01:43:52.243Z,58.34
2017-07-19T01:45:02.595Z,58.63
2017-07-19T01:46:12.687Z,58.31
2017-07-19T01:47:23.051Z,58.53
2017-07-19T01:48:33.073Z,58.72
2017-07-19T01:49:43.111Z,58.8
2017-07-19T01:50:53.462Z,58.72
2017-07-19T01:52:03.868Z,58.8
2017-07-19T01:53:13.905Z,58.5
2017-07-19T01:54:24.272Z,58.6
2017-07-19T01:55:34.631Z,58.8
2017-07-19T01:56:44.372Z,58.31
2017-07-19T01:57:54.460Z,58.6
2017-07-19T01:59:04.812Z,58.8
2017-07-19T02:00:14.849Z,58.7
2017-07-19T02:01:24.881Z,58.6
2017-07-19T02:02:35.227Z,58.89
2017-07-19T02:03:45.618Z,58.89
2017-07-19T02:04:55.982Z,58.86
2017-07-19T02:06:06.347Z,58.37
2017-07-19T02:07:16.697Z,58.57
2017-07-19T02:08:27.048Z,58.67
2017-07-19T02:09:37.081Z,58.57
2017-07-19T02:10:47.117Z,58.86
2017-07-19T02:11:57.458Z,58.86
2017-07-19T02:13:07.814Z,59.25
2017-07-19T02:14:18.174Z,58.67
2017-07-19T02:15:28.384Z,58.67
2017-07-19T02:16:38.741Z,58.67
2017-07-19T02:17:48.764Z,58.67
2017-07-19T02:18:59.109Z,58.67
2017-07-19T02:20:09.143Z,58.64
2017-07-19T02:21:18.920Z,58.64
2017-07-19T02:22:29.257Z,58.64
2017-07-19T02:23:39.598Z,58.73
2017-07-19T02:24:49.936Z,58.54
2017-07-19T02:25:59.971Z,58.25
2017-07-19T02:27:10.369Z,58.25
2017-07-19T02:28:20.720Z,58.35
2017-07-19T02:29:31.065Z,58.73
2017-07-19T02:30:41.104Z,58.54
2017-07-19T02:31:51.446Z,58.54
2017-07-19T02:33:01.483Z,58.45
2017-07-19T02:34:11.509Z,58.25
2017-07-19T02:35:21.865Z,58.45
2017-07-19T02:36:32.217Z,58.73
2017-07-19T02:37:42.569Z,58.64
2017-07-19T02:38:52.929Z,59.22
2017-07-19T02:40:03.267Z,58.61
2017-07-19T02:41:12.986Z,58.51
2017-07-19T02:42:23.325Z,58.61
2017-07-19T02:43:33.659Z,58.8
2017-07-19T02:44:44.010Z,59.19
2017-07-19T02:45:54.360Z,58.9
2017-07-19T02:47:04.715Z,59.19
2017-07-19T02:48:14.749Z,58.42
2017-07-19T02:49:25.102Z,58.61
2017-07-19T02:50:35.443Z,58.61
2017-07-19T02:51:45.482Z,58.61
2017-07-19T02:52:55.821Z,58.39
2017-07-19T02:54:06.164Z,58.22
2017-07-19T02:55:16.199Z,58.29
2017-07-19T02:56:26.284Z,58.29
2017-07-19T02:57:36.638Z,58.68
2017-07-19T02:58:46.994Z,58.48
2017-07-19T02:59:57.347Z,58.39
2017-07-19T03:01:07.715Z,58.48
2017-07-19T03:33:07.608Z,56.33
2017-07-19T03:34:17.636Z,56.43
2017-07-19T03:35:27.659Z,57.2
2017-07-19T03:36:37.997Z,57.48
2017-07-19T03:37:48.336Z,57.97
2017-07-19T03:38:58.356Z,57.97
2017-07-19T03:40:08.694Z,58.95
2017-07-19T03:41:18.426Z,58.76
2017-07-19T03:42:28.782Z,58.76
2017-07-19T03:43:38.837Z,58.86
2017-07-19T03:44:49.239Z,58.79
2017-07-19T03:45:58.965Z,58.79
2017-07-19T03:47:09.004Z,58.89
2017-07-19T03:48:19.341Z,58.72
2017-07-19T03:49:29.682Z,58.92
2017-07-19T03:50:40.059Z,58.92
2017-07-19T03:51:50.412Z,58.47
2017-07-19T03:53:00.449Z,58.08
2017-07-19T03:54:10.784Z,58.3
2017-07-19T03:55:20.818Z,58.37
2017-07-19T03:56:31.209Z,58.3
2017-07-19T03:57:41.554Z,58.2
2017-07-19T03:58:51.898Z,58.01
2017-07-19T04:00:01.941Z,58.4
2017-07-19T04:01:11.986Z,57.72
2017-07-19T04:02:22.074Z,57.94
2017-07-19T04:03:32.448Z,58.04
2017-07-19T04:04:42.798Z,58.14
2017-07-19T04:05:53.142Z,58.23
2017-07-19T04:07:03.484Z,58.04
2017-07-19T04:08:13.881Z,58.07
2017-07-19T04:09:24.232Z,57.49
2017-07-19T04:10:34.622Z,57.39
2017-07-19T04:11:44.981Z,57.97
2017-07-19T04:12:55.018Z,57.87
2017-07-19T04:14:05.398Z,57.97
2017-07-19T04:15:15.745Z,57.87
2017-07-19T04:16:26.082Z,58.07
2017-07-19T04:17:36.419Z,57.78
2017-07-19T04:18:46.458Z,57.9
2017-07-19T04:19:56.808Z,58.19
2017-07-19T04:21:07.161Z,57.9
2017-07-19T04:22:17.517Z,57.71
2017-07-19T04:23:27.557Z,57.62
2017-07-19T04:24:37.897Z,57.23
2017-07-19T04:25:48.312Z,57.62
2017-07-19T04:26:58.654Z,57.35
2017-07-19T04:28:08.990Z,57.26
2017-07-19T04:29:19.366Z,55.55
2017-07-19T04:30:29.445Z,53.21
2017-07-19T04:31:39.856Z,52.44
2017-07-19T04:32:50.222Z,51.57
2017-07-19T04:34:00.266Z,51.53
2017-07-19T04:35:10.641Z,51.29
2017-07-19T04:36:20.364Z,51.04
2017-07-19T04:37:30.722Z,51.29
2017-07-19T04:38:41.062Z,51.41
2017-07-19T04:39:51.400Z,51.14
2017-07-19T04:41:01.741Z,51.29
2017-07-19T04:42:12.114Z,51.32
2017-07-19T04:43:22.514Z,51.51
2017-07-19T04:44:32.556Z,51.54
2017-07-19T04:45:42.915Z,51.17
2017-07-19T04:46:53.282Z,52.05
2017-07-19T04:48:03.632Z,52.2
2017-07-19T04:49:13.972Z,52.37
2017-07-19T04:50:24.328Z,52.08
2017-07-19T04:51:34.694Z,52.2
2017-07-19T04:52:45.068Z,51.34
2017-07-19T04:53:55.427Z,50.88
2017-07-19T04:55:05.521Z,50.32
2017-07-19T04:56:15.558Z,50.63
2017-07-19T04:57:25.925Z,50.37
2017-07-19T04:58:36.275Z,50.49
2017-07-19T04:59:46.299Z,50.61
2017-07-19T05:00:56.695Z,50.42
2017-07-19T05:02:07.084Z,50.44
2017-07-19T05:03:17.128Z,50.37
2017-07-19T05:04:27.476Z,50.85
2017-07-19T05:05:37.208Z,50.49
2017-07-19T05:06:47.295Z,50.61
2017-07-19T05:07:57.644Z,51.4
2017-07-19T05:09:08.013Z,52.33
2017-07-19T05:10:18.370Z,53.53
2017-07-19T05:11:28.103Z,53.28
2017-07-19T05:12:38.177Z,54.33
2017-07-19T05:13:48.204Z,55.94
2017-07-19T05:14:58.249Z,56.74
2017-07-19T05:16:08.604Z,57.46
2017-07-19T05:17:18.978Z,57.89
2017-07-19T05:18:29.367Z,58.42
2017-07-19T05:19:39.730Z,58.29
2017-07-19T05:20:49.777Z,58.26
2017-07-19T05:21:59.837Z,58.26
2017-07-19T05:23:10.210Z,58.14
2017-07-19T05:24:20.573Z,57.82
2017-07-19T05:25:30.932Z,57.72
2017-07-19T05:26:41.274Z,57.92
2017-07-19T05:27:51.322Z,57.82
2017-07-19T05:29:01.677Z,57.6
2017-07-19T05:30:12.044Z,57.69
2017-07-19T05:31:22.077Z,57.96
2017-07-19T05:32:31.848Z,57.08
2017-07-19T05:33:41.881Z,57.18
2017-07-19T05:34:51.922Z,57.18
2017-07-19T05:36:02.302Z,56.67
2017-07-19T05:37:12.722Z,56.86
2017-07-19T05:38:23.066Z,56.86
2017-07-19T05:39:33.403Z,56.76
2017-07-19T05:40:43.752Z,56.76
2017-07-19T05:41:53.803Z,57.12
2017-07-19T05:43:04.220Z,56.93
2017-07-19T05:44:14.583Z,56.64
2017-07-19T05:45:24.942Z,56.93
2017-07-19T05:46:34.986Z,57.03
2017-07-19T05:47:44.695Z,57.12
2017-07-19T05:48:55.037Z,57.22
2017-07-19T05:50:05.371Z,56.35
2017-07-19T05:51:15.717Z,56.64
2017-07-19T05:52:25.743Z,57.06
2017-07-19T05:53:36.085Z,56.64
2017-07-19T05:54:46.484Z,56.28
2017-07-19T05:55:56.818Z,56.09
2017-07-19T05:57:06.844Z,55.73
2017-07-19T05:58:17.198Z,54.42
2017-07-19T05:59:27.550Z,53.01
2017-07-19T06:00:37.628Z,52.14
2017-07-19T06:01:47.979Z,51.8
2017-07-19T06:02:58.016Z,51.76
2017-07-19T06:04:08.356Z,52.05
2017-07-19T06:05:18.100Z,52.15
2017-07-19T06:06:28.463Z,52.47
2017-07-19T06:07:38.803Z,52.69
2017-07-19T06:08:49.158Z,52.49
2017-07-19T06:09:59.507Z,52.51
2017-07-19T06:11:09.565Z,53.39
2017-07-19T06:12:19.661Z,54.03
2017-07-19T06:13:30.019Z,54.59
2017-07-19T06:14:40.376Z,55.63
2017-07-19T06:15:50.413Z,55.63
2017-07-19T06:17:00.504Z,55.61
2017-07-19T06:18:10.586Z,54.66
2017-07-19T06:19:20.613Z,54.3
2017-07-19T06:20:30.651Z,54.61
2017-07-19T06:21:40.997Z,55.76
2017-07-19T06:22:51.343Z,56.2
2017-07-19T06:24:01.687Z,57.43
2017-07-19T06:25:12.024Z,57.5
2017-07-19T06:26:22.366Z,57.09
2017-07-19T06:27:32.710Z,57.45
2017-07-19T06:28:42.437Z,57.64
2017-07-19T06:29:52.833Z,58.1
2017-07-19T06:31:02.552Z,57.71
2017-07-19T06:32:12.582Z,57.22
2017-07-19T06:33:22.012Z,57.29
2017-07-19T06:34:32.373Z,57.29
2017-07-19T06:35:42.771Z,56.9
2017-07-19T06:36:53.113Z,57
2017-07-19T06:38:03.581Z,57
2017-07-19T06:39:13.946Z,56.81
2017-07-19T06:40:23.984Z,56.97
2017-07-19T06:41:34.407Z,56.87
2017-07-19T06:42:44.450Z,56.87
2017-07-19T06:43:54.481Z,56.97
2017-07-19T06:45:04.824Z,57.07
2017-07-19T06:46:15.202Z,57.17
2017-07-19T06:47:25.558Z,56.97
2017-07-19T06:48:35.926Z,56.65
2017-07-19T06:49:46.265Z,56.68
2017-07-19T06:50:56.611Z,57.17
2017-07-19T06:52:06.352Z,57.46
2017-07-19T06:53:16.434Z,56.59
2017-07-19T06:54:26.463Z,56.2
2017-07-19T06:55:36.827Z,55.64
2017-07-19T06:56:46.857Z,55.57
2017-07-19T06:57:57.223Z,55.47
2017-07-19T06:59:07.669Z,55.01
2017-07-19T07:00:18.019Z,54.55
2017-07-19T07:01:28.054Z,54.65
2017-07-19T07:02:38.094Z,54.68
2017-07-19T07:03:48.127Z,54.58
2017-07-19T07:04:58.531Z,55.07
2017-07-19T07:06:08.886Z,55.07
2017-07-19T07:07:19.235Z,54.99
2017-07-19T07:08:29.573Z,55.09
2017-07-19T07:09:39.609Z,55.58
2017-07-19T07:10:49.646Z,55.77
2017-07-19T07:12:00.035Z,55.85
2017-07-19T07:13:10.391Z,55.85
2017-07-19T07:14:20.732Z,56.23
2017-07-19T07:15:31.078Z,56.33
2017-07-19T07:16:41.177Z,56.23
2017-07-19T07:17:51.542Z,56.26
2017-07-19T07:19:01.276Z,56.46
2017-07-19T07:20:11.625Z,56.26
2017-07-19T07:21:21.975Z,56.16
2017-07-19T07:22:32.357Z,56.16
2017-07-19T07:23:42.788Z,55.97
2017-07-19T07:24:53.139Z,56.2
2017-07-19T07:26:03.490Z,56.29
2017-07-19T07:27:13.850Z,56.29
2017-07-19T07:28:24.217Z,56.48
2017-07-19T07:29:34.574Z,56.12
2017-07-19T07:30:44.948Z,56.32
2017-07-19T07:31:55.322Z,56.22
2017-07-19T07:33:05.688Z,56.22
2017-07-19T07:34:16.054Z,56.54
2017-07-19T07:35:26.414Z,56.51
2017-07-19T07:36:36.761Z,56.61
2017-07-19T07:37:46.810Z,56.58
2017-07-19T07:38:57.180Z,56.61
2017-07-19T07:40:07.522Z,56.32
2017-07-19T07:41:18.213Z,55.96
2017-07-19T07:42:29.283Z,55.86
2017-07-19T07:43:40.793Z,55.2
2017-07-19T07:44:51.142Z,54.83
2017-07-19T07:46:01.179Z,54.96
2017-07-19T07:47:11.541Z,54.5
2017-07-19T07:48:21.883Z,54.6
2017-07-19T07:49:31.949Z,54.79
2017-07-19T07:50:42.309Z,54.62
2017-07-19T07:51:52.349Z,54.46
2017-07-19T07:53:02.742Z,54.55
2017-07-19T07:54:13.108Z,54.77
2017-07-19T07:55:23.453Z,54.87
2017-07-19T07:56:33.805Z,54.5
2017-07-19T07:57:44.165Z,54.6
2017-07-19T07:58:54.563Z,54.8
2017-07-19T08:00:04.609Z,54.6
2017-07-19T08:01:14.961Z,54.7
2017-07-19T08:02:25.311Z,54.9
2017-07-19T08:03:35.670Z,55.19
2017-07-19T08:04:46.082Z,55.29
2017-07-19T08:05:56.425Z,55.39
2017-07-19T08:07:06.790Z,55.49
2017-07-19T08:08:16.838Z,55.98
2017-07-19T08:09:27.213Z,55.66
2017-07-19T08:10:37.618Z,55.66
2017-07-19T08:11:48.008Z,55.66
2017-07-19T08:12:58.355Z,55.66
2017-07-19T08:14:08.700Z,55.46
2017-07-19T08:15:19.085Z,55.78
2017-07-19T08:16:29.472Z,56.07
2017-07-19T08:17:39.836Z,56.07
2017-07-19T08:18:50.190Z,56.07
2017-07-19T08:19:59.877Z,55.98
2017-07-19T08:21:09.942Z,55.88
2017-07-19T08:22:20.349Z,56.07
2017-07-19T08:23:30.707Z,55.78
2017-07-19T08:24:41.057Z,55.78
2017-07-19T08:25:51.429Z,55.98
2017-07-19T08:27:01.790Z,56.07
2017-07-19T08:28:12.210Z,55.78
2017-07-19T08:29:21.949Z,56.17
2017-07-19T08:30:32.298Z,56.17
2017-07-19T08:31:42.349Z,55.98
2017-07-19T08:32:52.065Z,56.27
2017-07-19T08:34:02.567Z,56.17
2017-07-19T08:35:12.617Z,56.37
2017-07-19T08:36:22.991Z,56.54
2017-07-19T08:37:33.359Z,56.15
2017-07-19T08:38:43.729Z,56.17
2017-07-19T08:39:53.460Z,56.27
2017-07-19T08:41:03.808Z,56.07
2017-07-19T08:42:14.169Z,56.3
2017-07-19T08:43:24.528Z,56.1
2017-07-19T08:44:34.871Z,56.01
2017-07-19T08:45:45.276Z,55.81
2017-07-19T08:46:55.350Z,56.01
2017-07-19T08:48:05.704Z,56.03
2017-07-19T08:49:16.087Z,55.83
2017-07-19T08:50:26.447Z,55.81
2017-07-19T08:51:36.182Z,56.3
2017-07-19T08:52:46.555Z,56.4
2017-07-19T08:53:56.600Z,56.47
2017-07-19T08:55:06.980Z,56.27
2017-07-19T08:56:17.341Z,56.27
2017-07-19T08:57:27.728Z,56.17
2017-07-19T08:58:38.077Z,56.3
2017-07-19T08:59:48.129Z,56.01
2017-07-19T09:00:58.482Z,56.1
2017-07-19T09:02:08.828Z,56.3
2017-07-19T09:03:19.251Z,56.2
2017-07-19T09:04:29.282Z,56.1
2017-07-19T09:05:39.639Z,56.1
2017-07-19T09:06:49.997Z,55.93
2017-07-19T09:08:00.365Z,55.54
2017-07-19T09:09:10.894Z,55.44
2017-07-19T09:10:21.273Z,55.27
2017-07-19T09:11:31.654Z,55.47
2017-07-19T09:12:42.006Z,56.13
2017-07-19T09:13:52.046Z,56.03
2017-07-19T09:15:01.829Z,56.32
2017-07-19T09:16:12.177Z,56.23
2017-07-19T09:17:22.537Z,55.35
2017-07-19T09:18:32.900Z,54.68
2017-07-19T09:19:42.932Z,54.81
2017-07-19T09:20:52.714Z,55.1
2017-07-19T09:22:02.759Z,55.03
2017-07-19T09:23:13.118Z,54.83
2017-07-19T09:24:23.487Z,54.74
2017-07-19T09:25:33.822Z,54.66
2017-07-19T09:26:44.235Z,54.96
2017-07-19T09:27:54.618Z,54.76
2017-07-19T09:29:04.354Z,54.86
2017-07-19T09:30:14.694Z,54.76
2017-07-19T09:31:25.047Z,54.39
2017-07-19T09:32:35.435Z,54.49
2017-07-19T09:33:45.785Z,54.39
2017-07-19T09:34:55.830Z,54.39
2017-07-19T09:36:06.198Z,54.03
2017-07-19T09:37:16.553Z,54.45
2017-07-19T09:38:27.059Z,54.35
2017-07-19T09:39:37.421Z,54.28
2017-07-19T09:40:47.804Z,54.08
2017-07-19T09:41:58.159Z,54.47
2017-07-19T09:43:08.516Z,54.08
2017-07-19T09:44:18.904Z,54.5
2017-07-19T09:45:28.955Z,54.8
2017-07-19T09:46:39.316Z,53.94
2017-07-19T09:47:49.687Z,53.64
2017-07-19T09:49:00.041Z,53.74
2017-07-19T09:50:10.460Z,53.67
2017-07-19T09:51:20.834Z,53.77
2017-07-19T09:52:30.872Z,53.69
2017-07-19T09:53:41.161Z,53.03
2017-07-19T09:54:51.530Z,53.15
2017-07-19T09:56:01.983Z,52.98
2017-07-19T09:57:11.709Z,52.81
2017-07-19T09:58:22.078Z,52.73
2017-07-19T09:59:32.432Z,52.66
2017-07-19T10:00:42.801Z,52.76
2017-07-19T10:01:53.011Z,52.56
2017-07-19T10:03:03.376Z,52.69
2017-07-19T10:04:13.423Z,52.98
2017-07-19T10:05:23.798Z,53.18
2017-07-19T10:06:33.843Z,53.08
2017-07-19T10:07:43.938Z,53.08
2017-07-19T10:08:54.325Z,53.38
2017-07-19T10:10:04.685Z,53.38
2017-07-19T10:11:14.419Z,53.48
2017-07-19T10:12:24.812Z,54.05
2017-07-19T10:13:34.852Z,53.95
2017-07-19T10:14:45.226Z,53.95
2017-07-19T10:15:55.301Z,54.02
2017-07-19T10:17:05.659Z,54.69
2017-07-19T10:18:16.016Z,54.49
2017-07-19T10:19:26.119Z,55.26
2017-07-19T10:20:36.486Z,54.83
2017-07-19T10:21:46.855Z,55.22
2017-07-19T10:22:57.233Z,54.53
2017-07-19T10:24:07.628Z,54.34
2017-07-19T10:25:18.026Z,54.63
2017-07-19T10:26:28.086Z,55.33
2017-07-19T10:27:38.473Z,55.3
2017-07-19T10:28:48.845Z,54.61
2017-07-19T10:29:59.216Z,54.61
2017-07-19T10:31:08.995Z,54.61
2017-07-19T10:32:19.346Z,54.61
2017-07-19T10:33:29.713Z,54.51
2017-07-19T10:34:40.074Z,54.71
2017-07-19T10:35:50.441Z,54.88
2017-07-19T10:37:00.231Z,54.95
2017-07-19T10:38:10.592Z,55.12
2017-07-19T10:39:20.972Z,55.81
2017-07-19T10:40:31.342Z,55.88
2017-07-19T10:41:41.695Z,56.05
2017-07-19T10:42:51.427Z,56.32
2017-07-19T10:44:01.807Z,56.32
2017-07-19T10:45:12.169Z,56.29
2017-07-19T10:46:22.551Z,56.22
2017-07-19T10:47:32.608Z,56.1
2017-07-19T10:48:42.974Z,55.83
2017-07-19T10:49:53.332Z,55.63
2017-07-19T10:51:03.693Z,55.63
2017-07-19T10:52:14.057Z,55.41
2017-07-19T10:53:24.422Z,55.04
2017-07-19T10:54:34.838Z,55.04
2017-07-19T10:55:45.222Z,55.24
2017-07-19T10:56:55.276Z,55.24
2017-07-19T10:58:05.308Z,54.94
2017-07-19T10:59:15.377Z,55.04
2017-07-19T11:00:25.480Z,54.97
2017-07-19T11:01:35.844Z,54.38
2017-07-19T11:02:45.275Z,53.44
2017-07-19T11:03:55.646Z,53.77
2017-07-19T11:05:05.705Z,53.67
2017-07-19T11:06:16.112Z,53.86
2017-07-19T11:07:26.497Z,53.86
2017-07-19T11:08:36.881Z,53.79
2017-07-19T11:09:46.944Z,53.03
2017-07-19T11:10:57.304Z,52.98
2017-07-19T11:12:07.721Z,52.41
2017-07-19T11:13:17.781Z,52.96
2017-07-19T11:14:28.144Z,52.36
2017-07-19T11:15:38.209Z,52.29
2017-07-19T11:16:48.254Z,52.12
2017-07-19T11:17:58.668Z,52.14
2017-07-19T11:19:08.714Z,51.84
2017-07-19T11:20:19.093Z,52.26
2017-07-19T11:21:29.484Z,52.39
2017-07-19T11:22:39.527Z,52.39
2017-07-19T11:23:49.956Z,52.29
2017-07-19T11:25:00.311Z,52.42
2017-07-19T11:26:10.688Z,53.11
2017-07-19T11:27:21.034Z,52.98
2017-07-19T11:28:31.391Z,53.28
2017-07-19T11:29:41.448Z,52.89
2017-07-19T11:30:51.799Z,52.89
2017-07-19T11:32:01.863Z,52.42
2017-07-19T11:33:12.226Z,52.72
2017-07-19T11:34:22.575Z,52.24
2017-07-19T11:35:33.009Z,52.74
2017-07-19T11:36:43.393Z,53.01
2017-07-19T11:37:53.737Z,53.11
2017-07-19T11:39:04.118Z,53.48
2017-07-19T11:40:14.491Z,53.28
2017-07-19T11:41:24.609Z,53.68
2017-07-19T11:42:35.000Z,54.17
2017-07-19T11:43:45.370Z,53.56
2017-07-19T11:44:55.740Z,53.73
2017-07-19T11:46:06.112Z,54.2
2017-07-19T11:47:16.157Z,54.99
2017-07-19T11:48:26.522Z,54.77
2017-07-19T11:49:36.897Z,54.96
2017-07-19T11:50:46.974Z,54.86
2017-07-19T11:51:57.341Z,54.35
2017-07-19T11:53:07.755Z,54.74
2017-07-19T11:54:17.497Z,54.64
2017-07-19T11:55:27.871Z,54.32
2017-07-19T11:56:38.254Z,54.71
2017-07-19T11:57:48.642Z,54.52
2017-07-19T11:58:59.067Z,54.59
2017-07-19T12:00:09.489Z,54.61
2017-07-19T12:01:19.872Z,54.61
2017-07-19T12:02:30.239Z,54.39
2017-07-19T12:03:40.603Z,54.81
2017-07-19T12:04:50.734Z,54.42
2017-07-19T12:06:01.108Z,54.59
2017-07-19T12:07:11.492Z,54.59
2017-07-19T12:08:21.881Z,54.49
2017-07-19T12:09:31.643Z,54.86
2017-07-19T12:10:41.746Z,54.56
2017-07-19T12:11:52.116Z,54.59
2017-07-19T12:13:02.482Z,54.46
2017-07-19T12:14:12.855Z,54.46
2017-07-19T12:15:23.235Z,55.35
2017-07-19T12:16:33.838Z,55.45
2017-07-19T12:17:44.205Z,55.33
2017-07-19T12:18:54.582Z,54.56
2017-07-19T12:20:04.951Z,54.56
2017-07-19T12:21:15.423Z,54.86
2017-07-19T12:22:25.927Z,54.1
2017-07-19T12:23:36.309Z,54.49
2017-07-19T12:24:46.674Z,54.88
2017-07-19T12:25:57.048Z,55.15
2017-07-19T12:27:07.454Z,55.05
2017-07-19T12:28:17.249Z,54.56
2017-07-19T12:29:27.623Z,54.27
2017-07-19T12:30:37.684Z,54.86
2017-07-19T12:31:48.043Z,54.98
2017-07-19T12:32:58.451Z,54.29
2017-07-19T12:34:08.889Z,53.92
2017-07-19T12:35:18.952Z,53.92
2017-07-19T12:36:29.325Z,54.02
2017-07-19T12:37:39.689Z,54.14
2017-07-19T12:38:50.040Z,53.85
2017-07-19T12:40:00.439Z,53.85
2017-07-19T12:41:10.512Z,54.05
2017-07-19T12:42:20.906Z,53.95
2017-07-19T12:43:31.305Z,53.85
2017-07-19T12:44:41.355Z,54.35
2017-07-19T12:45:51.763Z,54.84
2017-07-19T12:47:02.116Z,54.52
2017-07-19T12:48:12.475Z,54.71
2017-07-19T12:49:22.837Z,54.59
2017-07-19T12:50:33.190Z,54.69
2017-07-19T12:51:43.612Z,55.38
2017-07-19T12:52:53.985Z,55.35
2017-07-19T12:54:04.353Z,55.03
2017-07-19T12:55:14.403Z,55.72
2017-07-19T12:56:24.473Z,55.43
2017-07-19T12:57:34.540Z,55.05
2017-07-19T12:58:44.909Z,55.05
2017-07-19T12:59:55.297Z,54.66
2017-07-19T13:01:05.343Z,54.69
2017-07-19T13:02:15.708Z,54.98
2017-07-19T13:03:25.764Z,54.59
2017-07-19T13:04:35.886Z,54.69
2017-07-19T13:05:46.252Z,54.59
2017-07-19T13:06:56.621Z,54.98
2017-07-19T13:08:06.706Z,55.15
2017-07-19T13:09:17.060Z,55.05
2017-07-19T13:10:27.165Z,54.27
2017-07-19T13:11:37.529Z,54.39
2017-07-19T13:12:47.909Z,54.88
2017-07-19T13:13:57.951Z,54.59
2017-07-19T13:15:08.313Z,54.59
2017-07-19T13:16:18.688Z,54.98
2017-07-19T13:17:28.750Z,54.96
2017-07-19T13:18:39.130Z,55.26
2017-07-19T13:19:49.177Z,54.96
2017-07-19T13:20:59.556Z,54.86
2017-07-19T13:22:09.603Z,54.96
2017-07-19T13:23:19.334Z,54.96
2017-07-19T13:24:29.386Z,54.96
2017-07-19T13:25:39.755Z,55.15
2017-07-19T13:26:49.494Z,55.26
2017-07-19T13:27:59.603Z,55.26
2017-07-19T13:29:09.969Z,55.35
2017-07-19T13:30:20.365Z,55.26
2017-07-19T13:31:30.733Z,55.43
2017-07-19T13:32:40.789Z,55.43
2017-07-19T13:33:51.211Z,55.33
2017-07-19T13:35:01.568Z,55.33
2017-07-19T13:36:11.627Z,55.13
2017-07-19T13:37:22.012Z,55.22
2017-07-19T13:38:32.076Z,55.03
2017-07-19T13:39:42.531Z,54.96
2017-07-19T13:40:52.580Z,55.35
2017-07-19T13:42:02.636Z,55.05
2017-07-19T13:43:13.016Z,55.08
2017-07-19T13:44:23.077Z,55.45
2017-07-19T13:45:33.439Z,55.65
2017-07-19T13:46:43.817Z,55.82
2017-07-19T13:47:53.872Z,56.02
2017-07-19T13:49:04.261Z,56.29
2017-07-19T13:50:14.610Z,56.38
2017-07-19T13:51:25.131Z,56.29
2017-07-19T13:52:35.501Z,56.26
2017-07-19T13:53:45.877Z,56.46
2017-07-19T13:54:56.246Z,56.36
2017-07-19T13:56:06.639Z,56.36
2017-07-19T13:57:16.753Z,56.46
2017-07-19T13:58:26.491Z,56.36
2017-07-19T13:59:37.099Z,56.46
2017-07-19T14:00:47.490Z,56.56
2017-07-19T14:01:57.543Z,56.36
2017-07-19T14:03:07.646Z,56.26
2017-07-19T14:04:18.014Z,56.36
2017-07-19T14:05:28.378Z,56.06
2017-07-19T14:06:38.747Z,55.77
2017-07-19T14:07:49.113Z,55.87
2017-07-19T14:08:59.543Z,55.66
2017-07-19T14:10:09.908Z,55.57
2017-07-19T14:11:19.958Z,55.66
2017-07-19T14:12:30.349Z,55.66
2017-07-19T14:13:40.740Z,55.77
2017-07-19T14:14:51.189Z,55.77
2017-07-19T14:16:01.558Z,55.77
2017-07-19T14:17:11.930Z,55.96
2017-07-19T14:18:22.307Z,56.43
2017-07-19T14:19:32.682Z,56.33
2017-07-19T14:20:43.138Z,56.4
2017-07-19T14:21:53.204Z,56.4
2017-07-19T14:23:03.577Z,56.4
2017-07-19T14:24:13.965Z,56.3
2017-07-19T14:25:24.339Z,56.96
2017-07-19T14:26:34.774Z,56.74
2017-07-19T14:27:45.152Z,57.14
2017-07-19T14:28:55.546Z,57.01
2017-07-19T14:30:05.601Z,57.11
2017-07-19T14:31:15.997Z,57.57
2017-07-19T14:32:26.367Z,57.84
2017-07-19T14:33:36.432Z,57.25
2017-07-19T14:34:46.796Z,57.91
2017-07-19T14:35:57.168Z,57.51
2017-07-19T14:37:07.534Z,57.59
2017-07-19T14:38:17.950Z,58.64
2017-07-19T14:39:28.324Z,58.32
2017-07-19T14:40:38.715Z,58.29
2017-07-19T14:41:48.812Z,58.19
2017-07-19T14:42:59.231Z,57.97
2017-07-19T14:44:09.661Z,58.14
2017-07-19T14:45:20.065Z,58.14
2017-07-19T14:46:30.476Z,58.11
2017-07-19T14:47:40.552Z,58.07
2017-07-19T14:48:50.614Z,58.37
2017-07-19T14:50:01.010Z,58.05
2017-07-19T14:51:11.065Z,58.25
2017-07-19T14:52:21.435Z,58.31
2017-07-19T14:53:31.821Z,57.92
2017-07-19T14:54:42.214Z,57.73
2017-07-19T14:55:52.638Z,57.73
2017-07-19T14:57:03.001Z,57.6
2017-07-19T14:58:13.391Z,57.5
2017-07-19T14:59:23.475Z,57.57
2017-07-19T15:00:33.857Z,57.57
2017-07-19T15:01:44.285Z,57.57
2017-07-19T15:02:54.659Z,57.35
2017-07-19T15:04:05.029Z,57.15
2017-07-19T15:05:15.429Z,57.25
2017-07-19T15:06:25.794Z,57.15
2017-07-19T15:07:35.885Z,57.03
2017-07-19T15:08:46.244Z,57.32
2017-07-19T15:09:56.611Z,57.42
2017-07-19T15:11:07.202Z,57.62
2017-07-19T15:12:17.561Z,57.32
2017-07-19T15:13:28.260Z,56.93
2017-07-19T15:14:38.620Z,56.64
2017-07-19T15:15:49.004Z,57.23
2017-07-19T15:16:59.380Z,57.23
2017-07-19T15:18:09.422Z,57.13
2017-07-19T15:19:19.880Z,57.03
2017-07-19T15:20:30.269Z,57.13
2017-07-19T15:21:40.631Z,57.23
2017-07-19T15:22:51.024Z,57.32
2017-07-19T15:24:01.402Z,57.03
2017-07-19T15:25:11.818Z,56.64
2017-07-19T15:26:22.196Z,57.13
2017-07-19T15:27:32.258Z,56.74
2017-07-19T15:28:42.631Z,56.64
2017-07-19T15:29:52.085Z,57.03
2017-07-19T15:31:02.514Z,56.64
2017-07-19T15:32:12.611Z,56.64
2017-07-19T15:33:22.972Z,56.93
2017-07-19T15:34:33.034Z,57.03
2017-07-19T15:35:43.391Z,57.03
2017-07-19T15:36:53.795Z,56.93
2017-07-19T15:38:04.169Z,57.03
2017-07-19T15:39:14.533Z,57.03